Time;durP1;ratioP1;P1;durP2;ratioP2;P2;SDS_P1;SDS_P2;PMS_P1;PMS_P2;Temp;Humidity;BMP_temperature;BMP_pressure;BME280_temperature;BME280_humidity;BME280_pressure;Samples;Min_cycle;Max_cycle;Signal;HPM_P1;HPM_P2
2022/01/25 00:09:59;;;;;;;69.35;37.20;;;;;;;;;;5023949;28;20056;-72
2022/01/25 00:15:13;;;;;;;63.13;35.15;;;;;;;;;;5025198;28;20049;-72
2022/01/25 00:28:49;;;;;;;70.30;38.72;;;;;;;;;;5022589;28;20291;-72
2022/01/25 00:31:18;;;;;;;70.53;37.60;;;;;;;;;;5009294;28;20471;-71
2022/01/25 00:33:46;;;;;;;69.50;37.65;;;;;;;;;;5024366;28;20461;-71
2022/01/25 00:36:15;;;;;;;71.43;38.58;;;;;;;;;;5026425;28;20080;-71
2022/01/25 00:38:41;;;;;;;76.15;36.63;;;;;;;;;;5028810;28;20056;-72
2022/01/25 00:41:08;;;;;;;68.75;37.17;;;;;;;;;;5027435;28;20066;-71
2022/01/25 00:43:34;;;;;;;67.40;36.75;;;;;;;;;;5025892;28;20041;-71
2022/01/25 00:46:06;;;;;;;69.57;37.72;;;;;;;;;;5012317;28;20127;-71
2022/01/25 00:51:23;;;;;;;70.80;37.75;;;;;;;;;;5026351;28;20060;-71
2022/01/25 00:53:59;;;;;;;70.90;37.85;;;;;;;;;;5005860;28;20074;-72
2022/01/25 00:56:31;;;;;;;70.70;36.50;;;;;;;;;;5022614;28;20049;-71
2022/01/25 00:59:02;;;;;;;74.00;37.83;;;;;;;;;;5021077;28;20065;-71
2022/01/25 01:01:28;;;;;;;73.88;38.53;;;;;;;;;;5028808;28;20064;-71
2022/01/25 01:03:55;;;;;;;70.57;38.65;;;;;;;;;;5022402;28;20124;-71
2022/01/25 01:06:22;;;;;;;71.75;38.25;;;;;;;;;;5028012;28;20057;-71
2022/01/25 01:08:48;;;;;;;67.80;36.10;;;;;;;;;;5026440;28;20054;-71
2022/01/25 01:11:21;;;;;;;71.20;37.28;;;;;;;;;;5015338;28;20056;-71
2022/01/25 01:16:49;;;;;;;73.97;37.42;;;;;;;;;;5025106;28;20098;-71
2022/01/25 01:30:34;;;;;;;68.82;37.67;;;;;;;;;;5032407;28;20410;-71
2022/01/25 01:38:19;;;;;;;67.88;34.67;;;;;;;;;;5021984;28;20051;-72
2022/01/25 01:48:09;;;;;;;73.88;36.67;;;;;;;;;;5035560;28;20056;-72
2022/01/25 01:50:37;;;;;;;71.72;39.78;;;;;;;;;;5001321;28;20443;-72
2022/01/25 01:53:04;;;;;;;74.68;39.10;;;;;;;;;;5024018;28;20049;-72
2022/01/25 01:55:32;;;;;;;74.13;38.38;;;;;;;;;;5029967;28;20045;-72
2022/01/25 01:57:58;;;;;;;70.65;38.40;;;;;;;;;;5014837;28;20049;-72
2022/01/25 02:00:30;;;;;;;75.65;37.83;;;;;;;;;;5031503;28;20041;-72
2022/01/25 02:02:58;;;;;;;73.72;39.30;;;;;;;;;;5025227;28;20140;-72
2022/01/25 02:05:25;;;;;;;70.17;38.10;;;;;;;;;;5026962;28;20076;-72
2022/01/25 02:07:51;;;;;;;76.45;38.35;;;;;;;;;;5017060;28;20049;-72
2022/01/25 02:10:17;;;;;;;67.40;35.75;;;;;;;;;;5040920;28;20049;-72
2022/01/25 02:12:48;;;;;;;75.07;39.35;;;;;;;;;;5030600;28;20048;-72
2022/01/25 02:15:15;;;;;;;76.43;38.95;;;;;;;;;;5024613;28;20059;-72
2022/01/25 02:23:14;;;;;;;70.65;37.20;;;;;;;;;;5028174;28;20068;-72
2022/01/25 02:25:40;;;;;;;77.80;39.10;;;;;;;;;;5023255;28;20490;-72
2022/01/25 02:28:06;;;;;;;78.32;38.65;;;;;;;;;;5031118;28;20063;-72
2022/01/25 02:30:33;;;;;;;74.47;38.00;;;;;;;;;;5005822;28;20042;-71
2022/01/25 02:32:59;;;;;;;72.90;36.75;;;;;;;;;;5030709;28;20052;-71
2022/01/25 02:35:25;;;;;;;72.35;38.13;;;;;;;;;;5016295;28;20053;-72
2022/01/25 02:37:51;;;;;;;70.13;36.80;;;;;;;;;;5019564;28;20045;-71
2022/01/25 02:40:18;;;;;;;74.40;38.38;;;;;;;;;;5029041;28;20060;-72
2022/01/25 02:42:44;;;;;;;73.88;38.05;;;;;;;;;;5022795;28;20749;-72
2022/01/25 02:45:15;;;;;;;72.38;38.03;;;;;;;;;;5030608;28;20045;-71
2022/01/25 02:50:26;;;;;;;74.03;38.28;;;;;;;;;;5026701;28;20069;-72
2022/01/25 02:52:53;;;;;;;79.45;37.80;;;;;;;;;;5009338;28;20157;-72
2022/01/25 02:55:19;;;;;;;81.13;38.67;;;;;;;;;;5012850;28;20049;-72
2022/01/25 02:57:46;;;;;;;73.85;38.45;;;;;;;;;;5028083;28;20049;-72
2022/01/25 03:00:14;;;;;;;78.38;39.47;;;;;;;;;;5020411;28;20144;-73
2022/01/25 03:02:40;;;;;;;83.22;39.15;;;;;;;;;;5025139;28;20072;-72
2022/01/25 03:05:07;;;;;;;78.20;38.20;;;;;;;;;;5021576;28;20058;-71
2022/01/25 03:07:34;;;;;;;78.80;39.03;;;;;;;;;;5029781;28;20045;-71
2022/01/25 03:10:00;;;;;;;82.45;39.03;;;;;;;;;;5020667;28;20427;-70
2022/01/25 03:12:41;;;;;;;83.40;39.38;;;;;;;;;;5031690;28;20053;-71
2022/01/25 03:15:41;;;;;;;80.72;38.10;;;;;;;;;;5019608;28;20050;-71
2022/01/25 03:18:01;;;;;;;84.57;38.20;;;;;;;;;;5024861;28;20482;-70
2022/01/25 03:23:18;;;;;;;74.78;36.70;;;;;;;;;;5020085;28;20049;-71
2022/01/25 03:25:47;;;;;;;78.72;37.20;;;;;;;;;;5029488;28;20080;-71
2022/01/25 03:28:17;;;;;;;76.70;36.97;;;;;;;;;;5019508;28;20045;-71
2022/01/25 03:30:44;;;;;;;79.63;37.55;;;;;;;;;;5022480;28;20049;-72
2022/01/25 03:33:12;;;;;;;82.60;39.35;;;;;;;;;;5022002;28;20151;-72
2022/01/25 03:35:38;;;;;;;76.13;36.72;;;;;;;;;;5026300;28;20037;-70
2022/01/25 03:38:05;;;;;;;80.65;37.78;;;;;;;;;;5031100;28;20041;-71
2022/01/25 03:40:31;;;;;;;84.82;37.55;;;;;;;;;;5029251;28;20055;-71
2022/01/25 03:42:59;;;;;;;79.35;37.00;;;;;;;;;;5026998;28;20053;-71
2022/01/25 03:45:31;;;;;;;75.87;37.83;;;;;;;;;;5014901;28;20049;-71
2022/01/25 03:49:47;;;;;;;83.53;38.42;;;;;;;;;;5044585;28;20045;-70
2022/01/25 03:50:45;;;;;;;79.47;37.15;;;;;;;;;;5019633;28;20041;-69
2022/01/25 03:53:12;;;;;;;77.60;36.63;;;;;;;;;;5030808;28;20095;-69
2022/01/25 03:55:38;;;;;;;77.38;36.75;;;;;;;;;;5016221;28;20234;-69
2022/01/25 03:58:05;;;;;;;82.45;38.15;;;;;;;;;;5024054;28;20049;-69
2022/01/25 04:00:32;;;;;;;79.88;38.50;;;;;;;;;;5028081;28;20064;-70
2022/01/25 04:03:07;;;;;;;77.75;36.53;;;;;;;;;;5024171;28;20071;-70
2022/01/25 04:05:53;;;;;;;82.25;36.67;;;;;;;;;;5032597;28;20045;-70
2022/01/25 04:08:20;;;;;;;77.07;36.03;;;;;;;;;;5022750;28;20044;-70
2022/01/25 04:10:47;;;;;;;87.97;36.33;;;;;;;;;;5029720;28;20050;-70
2022/01/25 04:13:13;;;;;;;74.63;35.92;;;;;;;;;;5019843;28;20477;-71
2022/01/25 04:15:42;;;;;;;81.32;36.17;;;;;;;;;;5009105;28;21024;-70
2022/01/25 04:18:25;;;;;;;77.30;37.67;;;;;;;;;;5031405;28;20053;-71
2022/01/25 04:26:08;;;;;;;78.35;37.30;;;;;;;;;;5012337;28;20041;-71
2022/01/25 04:28:35;;;;;;;81.70;36.53;;;;;;;;;;5026025;28;20491;-70
2022/01/25 04:31:01;;;;;;;79.43;37.53;;;;;;;;;;5021347;28;20422;-71
2022/01/25 04:33:39;;;;;;;82.20;36.92;;;;;;;;;;5023220;28;20129;-71
2022/01/25 04:49:39;;;;;;;80.15;37.47;;;;;;;;;;5026599;28;20056;-71
2022/01/25 04:52:14;;;;;;;71.32;35.80;;;;;;;;;;5026366;28;20053;-70
2022/01/25 05:02:34;;;;;;;77.57;36.80;;;;;;;;;;5035249;28;20621;-71
2022/01/25 05:05:07;;;;;;;74.30;36.20;;;;;;;;;;5021119;28;20076;-71
2022/01/25 05:07:46;;;;;;;81.68;36.90;;;;;;;;;;5027139;28;20049;-71
2022/01/25 05:10:12;;;;;;;73.50;35.63;;;;;;;;;;5023603;28;20060;-71
2022/01/25 05:12:46;;;;;;;81.70;36.63;;;;;;;;;;5032378;28;20057;-70
2022/01/25 05:18:22;;;;;;;63.38;32.28;;;;;;;;;;5029830;28;20059;-70
2022/01/25 05:23:50;;;;;;;74.03;33.00;;;;;;;;;;4991072;28;19925;-70
2022/01/25 05:26:16;;;;;;;78.93;35.10;;;;;;;;;;5025970;28;20053;-71
2022/01/25 05:28:43;;;;;;;80.20;37.80;;;;;;;;;;5025413;28;20153;-70
2022/01/25 05:31:09;;;;;;;82.30;38.33;;;;;;;;;;5033423;28;20041;-70
2022/01/25 05:33:35;;;;;;;80.10;36.65;;;;;;;;;;5020053;28;20049;-70
2022/01/25 05:36:02;;;;;;;77.78;37.05;;;;;;;;;;5033727;28;20140;-70
2022/01/25 05:38:28;;;;;;;80.75;38.85;;;;;;;;;;5028896;28;20132;-70
2022/01/25 05:41:02;;;;;;;80.68;37.55;;;;;;;;;;5027249;28;20069;-70
2022/01/25 05:48:23;;;;;;;81.28;37.45;;;;;;;;;;5029054;28;20525;-70
2022/01/25 05:50:49;;;;;;;73.97;34.92;;;;;;;;;;5023114;28;20048;-70
2022/01/25 05:53:16;;;;;;;76.40;35.75;;;;;;;;;;5029451;28;20457;-70
2022/01/25 05:55:42;;;;;;;75.00;37.33;;;;;;;;;;5026303;28;20057;-69
2022/01/25 05:58:08;;;;;;;81.25;38.75;;;;;;;;;;5023554;28;20054;-70
2022/01/25 06:00:34;;;;;;;79.03;36.95;;;;;;;;;;5028803;28;20053;-70
2022/01/25 06:03:03;;;;;;;78.28;37.30;;;;;;;;;;5020560;28;20053;-70
2022/01/25 06:05:29;;;;;;;78.50;37.75;;;;;;;;;;5024594;28;20627;-70
2022/01/25 06:07:56;;;;;;;78.68;37.55;;;;;;;;;;5023417;28;20057;-70
2022/01/25 06:10:22;;;;;;;81.68;38.30;;;;;;;;;;5026097;28;20053;-70
2022/01/25 06:12:48;;;;;;;82.18;36.42;;;;;;;;;;5016211;28;20057;-70
2022/01/25 06:15:15;;;;;;;89.78;38.72;;;;;;;;;;5026075;28;20049;-70
2022/01/25 06:17:41;;;;;;;81.32;37.22;;;;;;;;;;5027604;28;20056;-70
2022/01/25 06:20:08;;;;;;;86.18;39.72;;;;;;;;;;5030193;28;20048;-70
2022/01/25 06:22:34;;;;;;;84.68;38.40;;;;;;;;;;5032609;28;20045;-70
2022/01/25 06:25:00;;;;;;;80.68;37.35;;;;;;;;;;5020309;28;20053;-70
2022/01/25 06:27:27;;;;;;;89.82;40.33;;;;;;;;;;5020718;28;20498;-70
2022/01/25 06:29:53;;;;;;;85.35;38.63;;;;;;;;;;5022509;28;20060;-70
2022/01/25 06:32:20;;;;;;;85.05;38.13;;;;;;;;;;5026758;28;20049;-70
2022/01/25 06:34:46;;;;;;;79.30;38.40;;;;;;;;;;5037252;28;20041;-70
2022/01/25 06:37:13;;;;;;;86.22;40.20;;;;;;;;;;5023835;28;20124;-70
2022/01/25 06:39:40;;;;;;;93.70;39.97;;;;;;;;;;5022537;28;20100;-70
2022/01/25 06:42:07;;;;;;;85.45;39.22;;;;;;;;;;5014688;28;20045;-70
2022/01/25 06:44:36;;;;;;;89.03;40.83;;;;;;;;;;5031052;28;20140;-70
2022/01/25 06:47:03;;;;;;;87.53;38.10;;;;;;;;;;5004412;28;20041;-70
2022/01/25 06:49:29;;;;;;;86.97;39.38;;;;;;;;;;5029060;28;20050;-70
2022/01/25 06:52:07;;;;;;;;;;;;;;;;;;5025840;28;20053;-70
2022/01/25 06:54:34;;;;;;;89.90;38.33;;;;;;;;;;5018204;28;19921;-70
2022/01/25 06:57:00;;;;;;;90.20;39.13;;;;;;;;;;5021347;28;20064;-70
2022/01/25 06:59:27;;;;;;;86.13;38.53;;;;;;;;;;5033334;28;20056;-70
2022/01/25 07:01:53;;;;;;;84.45;38.50;;;;;;;;;;5028054;28;20576;-70
2022/01/25 07:04:19;;;;;;;89.63;40.10;;;;;;;;;;5015207;28;20107;-69
2022/01/25 07:06:46;;;;;;;88.32;38.40;;;;;;;;;;5036796;28;20048;-70
2022/01/25 07:09:12;;;;;;;90.72;40.88;;;;;;;;;;5024968;28;20087;-69
2022/01/25 07:11:39;;;;;;;83.07;37.75;;;;;;;;;;5018080;28;20047;-70
2022/01/25 07:14:05;;;;;;;91.15;39.83;;;;;;;;;;5011617;28;20399;-70
2022/01/25 07:16:31;;;;;;;88.65;38.22;;;;;;;;;;5024313;28;20053;-70
2022/01/25 07:18:58;;;;;;;86.78;39.15;;;;;;;;;;5003913;28;20057;-70
2022/01/25 07:21:24;;;;;;;89.35;37.42;;;;;;;;;;5022427;28;20045;-70
2022/01/25 07:23:50;;;;;;;91.68;39.65;;;;;;;;;;5028071;28;20059;-70
2022/01/25 07:26:16;;;;;;;88.03;37.72;;;;;;;;;;5028644;28;20041;-70
2022/01/25 07:28:43;;;;;;;89.10;38.30;;;;;;;;;;5033239;28;20060;-70
2022/01/25 07:31:09;;;;;;;95.80;40.30;;;;;;;;;;5018724;28;20045;-70
2022/01/25 07:33:40;;;;;;;89.28;37.88;;;;;;;;;;5019941;28;20042;-68
2022/01/25 07:36:11;;;;;;;86.25;37.85;;;;;;;;;;5027509;28;20045;-71
2022/01/25 07:38:38;;;;;;;97.38;41.22;;;;;;;;;;5017083;28;20052;-69
2022/01/25 07:41:13;;;;;;;86.25;38.42;;;;;;;;;;5030648;28;20049;-69
2022/01/25 07:43:39;;;;;;;93.00;39.67;;;;;;;;;;5031723;28;20052;-69
2022/01/25 07:46:06;;;;;;;96.28;41.08;;;;;;;;;;5023012;28;20395;-70
2022/01/25 07:48:38;;;;;;;87.80;39.58;;;;;;;;;;5026046;28;20049;-69
2022/01/25 07:51:06;;;;;;;91.07;40.05;;;;;;;;;;5011254;28;20060;-69
2022/01/25 07:53:32;;;;;;;89.55;38.47;;;;;;;;;;5027613;28;20344;-69
2022/01/25 07:55:59;;;;;;;84.43;36.90;;;;;;;;;;5020035;28;20487;-70
2022/01/25 07:58:25;;;;;;;82.57;37.00;;;;;;;;;;5027635;28;20457;-70
2022/01/25 08:00:51;;;;;;;86.45;38.47;;;;;;;;;;5028947;28;20068;-70
2022/01/25 08:03:18;;;;;;;95.82;40.22;;;;;;;;;;4994535;28;20136;-70
2022/01/25 08:05:50;;;;;;;91.40;40.70;;;;;;;;;;5027891;28;20049;-70
2022/01/25 08:08:20;;;;;;;94.53;39.97;;;;;;;;;;5017453;28;20128;-70
2022/01/25 08:10:54;;;;;;;95.47;39.55;;;;;;;;;;5012327;28;20084;-70
2022/01/25 08:13:48;;;;;;;93.53;39.67;;;;;;;;;;5000833;28;20049;-70
2022/01/25 08:16:16;;;;;;;103.63;40.67;;;;;;;;;;5028209;28;20092;-70
2022/01/25 08:18:48;;;;;;;94.75;40.60;;;;;;;;;;5013184;28;20487;-70
2022/01/25 08:21:22;;;;;;;91.22;38.78;;;;;;;;;;5028442;28;20049;-70
2022/01/25 08:23:49;;;;;;;88.55;38.83;;;;;;;;;;5033155;28;20091;-70
2022/01/25 08:26:18;;;;;;;91.53;39.13;;;;;;;;;;5022648;28;20053;-71
2022/01/25 08:28:49;;;;;;;86.72;38.08;;;;;;;;;;5028629;28;20076;-70
2022/01/25 08:31:16;;;;;;;88.82;39.13;;;;;;;;;;5022240;28;20143;-70
2022/01/25 08:33:42;;;;;;;88.93;38.58;;;;;;;;;;5026142;28;20392;-70
2022/01/25 08:36:11;;;;;;;94.30;40.22;;;;;;;;;;5028713;28;20052;-70
2022/01/25 08:38:45;;;;;;;85.18;38.30;;;;;;;;;;5031389;28;20049;-70
2022/01/25 08:41:24;;;;;;;89.47;39.00;;;;;;;;;;5032174;28;20556;-70
2022/01/25 08:43:56;;;;;;;88.20;37.95;;;;;;;;;;5019666;28;20057;-70
2022/01/25 08:46:22;;;;;;;83.28;36.58;;;;;;;;;;5007321;28;20470;-70
2022/01/25 08:48:56;;;;;;;90.85;39.50;;;;;;;;;;5021553;28;20048;-70
2022/01/25 08:51:25;;;;;;;90.97;40.42;;;;;;;;;;5028417;28;20160;-70
2022/01/25 08:53:59;;;;;;;86.10;38.28;;;;;;;;;;5019770;28;20080;-70
2022/01/25 08:56:34;;;;;;;95.65;40.75;;;;;;;;;;5032883;28;20084;-70
2022/01/25 08:59:15;;;;;;;97.80;39.22;;;;;;;;;;5013125;28;20088;-70
2022/01/25 09:01:41;;;;;;;85.20;37.72;;;;;;;;;;5034215;28;20045;-70
2022/01/25 09:04:08;;;;;;;77.18;34.28;;;;;;;;;;5028055;28;20044;-70
2022/01/25 09:06:34;;;;;;;90.93;38.70;;;;;;;;;;5033003;28;20045;-70
2022/01/25 09:09:03;;;;;;;87.40;38.78;;;;;;;;;;5028498;28;20050;-70
2022/01/25 09:11:29;;;;;;;84.47;37.35;;;;;;;;;;5027755;28;20426;-70
2022/01/25 09:13:55;;;;;;;100.47;39.75;;;;;;;;;;5023408;28;20049;-70
2022/01/25 09:16:22;;;;;;;94.53;40.30;;;;;;;;;;5020403;28;20040;-70
2022/01/25 09:18:48;;;;;;;89.20;40.42;;;;;;;;;;5028429;28;20104;-70
2022/01/25 09:21:14;;;;;;;95.22;41.17;;;;;;;;;;5026122;28;20045;-70
2022/01/25 09:23:42;;;;;;;85.78;38.15;;;;;;;;;;5029890;28;20077;-70
2022/01/25 09:26:08;;;;;;;84.40;37.42;;;;;;;;;;5031637;28;20569;-70
2022/01/25 09:28:34;;;;;;;87.68;38.78;;;;;;;;;;5014213;28;20124;-70
2022/01/25 09:31:01;;;;;;;87.63;39.63;;;;;;;;;;5032185;28;20091;-70
2022/01/25 09:33:28;;;;;;;84.70;37.85;;;;;;;;;;5022547;28;20046;-70
2022/01/25 09:35:55;;;;;;;80.88;38.05;;;;;;;;;;5031343;28;20053;-70
2022/01/25 09:38:22;;;;;;;88.65;38.38;;;;;;;;;;5023556;28;20095;-70
2022/01/25 09:40:49;;;;;;;87.40;37.25;;;;;;;;;;5026420;28;20072;-70
2022/01/25 09:43:16;;;;;;;84.47;38.30;;;;;;;;;;5023636;28;20049;-70
2022/01/25 09:45:43;;;;;;;93.35;40.08;;;;;;;;;;5024321;28;20179;-70
2022/01/25 09:48:09;;;;;;;82.43;37.15;;;;;;;;;;5027040;28;20049;-70
2022/01/25 09:50:36;;;;;;;86.15;37.90;;;;;;;;;;5023531;28;20046;-70
2022/01/25 09:53:04;;;;;;;82.63;38.15;;;;;;;;;;5032021;28;20053;-69
2022/01/25 09:55:32;;;;;;;83.30;38.08;;;;;;;;;;5020387;28;20103;-70
2022/01/25 09:57:59;;;;;;;86.70;37.15;;;;;;;;;;5020932;28;20053;-70
2022/01/25 10:00:29;;;;;;;88.95;37.88;;;;;;;;;;5029471;28;20167;-70
2022/01/25 10:03:13;;;;;;;91.65;39.47;;;;;;;;;;5023085;28;20045;-70
2022/01/25 10:05:43;;;;;;;83.25;38.25;;;;;;;;;;5031411;28;20053;-71
2022/01/25 10:08:12;;;;;;;87.93;38.75;;;;;;;;;;5021423;28;20041;-70
2022/01/25 10:10:40;;;;;;;90.15;37.88;;;;;;;;;;5023830;28;20056;-70
2022/01/25 10:13:20;;;;;;;91.22;39.03;;;;;;;;;;5021052;28;20051;-74
2022/01/25 10:15:48;;;;;;;87.35;38.03;;;;;;;;;;5035706;28;20136;-70
2022/01/25 10:18:20;;;;;;;86.50;37.17;;;;;;;;;;5021530;28;20045;-70
2022/01/25 10:20:47;;;;;;;74.50;34.72;;;;;;;;;;5030045;28;20056;-70
2022/01/25 10:23:31;;;;;;;87.60;38.47;;;;;;;;;;5022824;28;20469;-70
2022/01/25 10:26:00;;;;;;;85.68;38.25;;;;;;;;;;5021114;28;20037;-70
2022/01/25 10:28:30;;;;;;;94.57;40.67;;;;;;;;;;5009816;28;20045;-70
2022/01/25 10:31:02;;;;;;;86.97;38.30;;;;;;;;;;5022309;28;20049;-70
2022/01/25 10:33:33;;;;;;;88.57;38.60;;;;;;;;;;5025890;28;20224;-70
2022/01/25 10:36:01;;;;;;;80.57;34.97;;;;;;;;;;5017118;28;20057;-70
2022/01/25 10:38:32;;;;;;;83.70;37.33;;;;;;;;;;5009081;28;20409;-70
2022/01/25 10:41:00;;;;;;;90.25;38.30;;;;;;;;;;5026744;28;20069;-70
2022/01/25 10:43:27;;;;;;;88.25;38.28;;;;;;;;;;5015964;28;20049;-69
2022/01/25 10:46:03;;;;;;;99.63;40.47;;;;;;;;;;5029165;28;20486;-70
2022/01/25 10:48:29;;;;;;;86.60;38.28;;;;;;;;;;5020088;28;20042;-70
2022/01/25 10:51:03;;;;;;;90.03;37.30;;;;;;;;;;5019753;28;20104;-70
2022/01/25 10:53:30;;;;;;;92.65;38.60;;;;;;;;;;4997205;28;20050;-70
2022/01/25 10:55:57;;;;;;;80.57;36.17;;;;;;;;;;5027856;28;20045;-70
2022/01/25 10:58:24;;;;;;;86.32;38.05;;;;;;;;;;5017181;28;20520;-71
2022/01/25 11:00:51;;;;;;;82.80;37.85;;;;;;;;;;5014935;28;20045;-70
2022/01/25 11:03:24;;;;;;;86.10;37.65;;;;;;;;;;5020679;28;20060;-71
2022/01/25 11:05:51;;;;;;;84.88;36.53;;;;;;;;;;5013025;28;20049;-71
2022/01/25 11:08:18;;;;;;;85.90;36.17;;;;;;;;;;4996515;28;20050;-70
2022/01/25 11:10:49;;;;;;;84.47;37.50;;;;;;;;;;5009198;28;20084;-70
2022/01/25 11:15:57;;;;;;;87.80;38.75;;;;;;;;;;5018369;28;20041;-70
2022/01/25 11:18:24;;;;;;;86.78;38.72;;;;;;;;;;4996106;28;20893;-69
2022/01/25 11:20:52;;;;;;;91.72;38.85;;;;;;;;;;5019850;28;20049;-71
2022/01/25 11:23:19;;;;;;;88.18;38.95;;;;;;;;;;5023765;28;20384;-69
2022/01/25 11:25:48;;;;;;;78.20;35.10;;;;;;;;;;5018779;28;20040;-69
2022/01/25 11:28:14;;;;;;;78.57;35.58;;;;;;;;;;5010000;28;20412;-69
2022/01/25 11:30:42;;;;;;;88.30;36.50;;;;;;;;;;5019279;28;20441;-69
2022/01/25 11:33:12;;;;;;;85.63;37.90;;;;;;;;;;5013706;28;20049;-69
2022/01/25 11:35:39;;;;;;;91.68;39.10;;;;;;;;;;5010742;28;20413;-69
2022/01/25 11:38:06;;;;;;;82.90;37.78;;;;;;;;;;5028171;28;20053;-69
2022/01/25 11:40:38;;;;;;;90.20;38.72;;;;;;;;;;5013832;28;20402;-69
2022/01/25 11:43:06;;;;;;;97.82;40.75;;;;;;;;;;5019266;28;20055;-69
2022/01/25 11:45:34;;;;;;;86.50;37.70;;;;;;;;;;5011422;28;20072;-70
2022/01/25 11:48:01;;;;;;;79.65;35.78;;;;;;;;;;5018271;28;20136;-69
2022/01/25 11:50:45;;;;;;;87.25;37.97;;;;;;;;;;5000316;28;20045;-70
2022/01/25 11:53:14;;;;;;;81.38;36.03;;;;;;;;;;5003019;28;20627;-68
2022/01/25 11:55:47;;;;;;;88.50;37.78;;;;;;;;;;5011851;28;20041;-69
2022/01/25 11:58:15;;;;;;;84.07;36.83;;;;;;;;;;5006233;28;20669;-69
2022/01/25 12:00:47;;;;;;;82.53;37.15;;;;;;;;;;5013729;28;20534;-69
2022/01/25 12:03:19;;;;;;;80.07;36.83;;;;;;;;;;5013041;28;20061;-69
2022/01/25 12:05:53;;;;;;;84.88;37.00;;;;;;;;;;5015513;28;20240;-70
2022/01/25 12:08:38;;;;;;;83.78;36.28;;;;;;;;;;5018779;28;20057;-70
2022/01/25 12:11:23;;;;;;;92.88;38.97;;;;;;;;;;5015895;28;20049;-69
2022/01/25 12:14:08;;;;;;;78.35;34.83;;;;;;;;;;5022039;28;20045;-69
2022/01/25 12:16:43;;;;;;;84.30;36.55;;;;;;;;;;5016188;28;20247;-69
2022/01/25 12:19:11;;;;;;;86.90;36.83;;;;;;;;;;5020214;28;20414;-69
2022/01/25 12:21:52;;;;;;;76.87;34.10;;;;;;;;;;5015416;28;20046;-70
2022/01/25 12:24:30;;;;;;;81.03;35.80;;;;;;;;;;5023267;28;20286;-69
2022/01/25 12:27:03;;;;;;;84.13;35.50;;;;;;;;;;5012131;28;20492;-69
2022/01/25 12:29:30;;;;;;;81.57;36.03;;;;;;;;;;5031683;28;20126;-71
2022/01/25 12:32:16;;;;;;;79.50;35.47;;;;;;;;;;5014679;28;20388;-70
2022/01/25 12:35:00;;;;;;;84.00;35.88;;;;;;;;;;5025873;28;20382;-70
2022/01/25 12:37:42;;;;;;;74.55;33.50;;;;;;;;;;5014065;28;20524;-70
2022/01/25 12:40:31;;;;;;;82.47;35.65;;;;;;;;;;5027316;28;20911;-70
2022/01/25 12:42:59;;;;;;;72.05;31.67;;;;;;;;;;5011363;28;20060;-70
2022/01/25 12:45:27;;;;;;;79.20;33.92;;;;;;;;;;5022855;28;20056;-70
2022/01/25 12:47:54;;;;;;;77.77;34.37;;;;;;;;;;5024344;28;20048;-69
2022/01/25 12:50:21;;;;;;;78.70;35.35;;;;;;;;;;5018071;28;20041;-70
2022/01/25 12:52:48;;;;;;;79.60;36.28;;;;;;;;;;5016229;28;20055;-70
2022/01/25 12:55:15;;;;;;;79.30;36.00;;;;;;;;;;5011541;28;20045;-70
2022/01/25 12:57:45;;;;;;;82.90;36.63;;;;;;;;;;5020655;28;20049;-70
2022/01/25 13:00:13;;;;;;;79.47;34.97;;;;;;;;;;4996842;28;20449;-71
2022/01/25 13:02:39;;;;;;;80.15;35.42;;;;;;;;;;5001577;28;20128;-71
2022/01/25 13:05:15;;;;;;;82.05;35.70;;;;;;;;;;5027243;28;20053;-70
2022/01/25 13:07:41;;;;;;;82.22;36.05;;;;;;;;;;5011375;28;20140;-71
2022/01/25 13:10:10;;;;;;;82.30;35.25;;;;;;;;;;5013529;28;20045;-71
2022/01/25 13:12:54;;;;;;;88.38;36.17;;;;;;;;;;5011255;28;20526;-70
2022/01/25 13:18:12;;;;;;;78.72;34.50;;;;;;;;;;5013168;28;20049;-71
2022/01/25 13:20:40;;;;;;;80.13;34.83;;;;;;;;;;5005593;28;20503;-70
2022/01/25 13:23:07;;;;;;;72.63;33.35;;;;;;;;;;5016150;28;20056;-70
2022/01/25 13:25:53;;;;;;;78.28;34.08;;;;;;;;;;5022092;28;20144;-71
2022/01/25 13:28:40;;;;;;;90.38;37.15;;;;;;;;;;5018093;28;20533;-70
2022/01/25 13:31:16;;;;;;;75.07;33.38;;;;;;;;;;5005482;28;20084;-70
2022/01/25 13:33:43;;;;;;;73.00;33.47;;;;;;;;;;5020283;28;20045;-70
2022/01/25 13:36:13;;;;;;;76.57;33.78;;;;;;;;;;5019074;28;20061;-70
2022/01/25 13:38:41;;;;;;;76.68;34.67;;;;;;;;;;5014167;28;20053;-70
2022/01/25 13:46:32;;;;;;;68.85;31.27;;;;;;;;;;5015827;28;20056;-70
2022/01/25 13:49:07;;;;;;;77.10;33.00;;;;;;;;;;5019938;28;20477;-70
2022/01/25 13:51:42;;;;;;;81.45;35.22;;;;;;;;;;5017312;28;20223;-71
2022/01/25 13:54:11;;;;;;;77.78;33.90;;;;;;;;;;5018790;28;20049;-73
2022/01/25 13:56:37;;;;;;;75.65;33.72;;;;;;;;;;5015536;28;20053;-72
2022/01/25 13:59:04;;;;;;;76.80;34.00;;;;;;;;;;5018797;28;20060;-71
2022/01/25 14:01:32;;;;;;;72.45;33.05;;;;;;;;;;5015980;28;20049;-71
2022/01/25 14:04:00;;;;;;;72.70;32.75;;;;;;;;;;5021529;28;20578;-70
2022/01/25 14:06:31;;;;;;;78.97;33.83;;;;;;;;;;5016941;28;20046;-70
2022/01/25 14:09:05;;;;;;;70.15;33.03;;;;;;;;;;5018491;28;20053;-70
2022/01/25 14:22:42;;;;;;;75.15;33.63;;;;;;;;;;5023418;28;20530;-70
2022/01/25 14:25:08;;;;;;;70.53;31.85;;;;;;;;;;5022197;28;20061;-70
2022/01/25 14:27:46;;;;;;;83.35;35.85;;;;;;;;;;5017899;28;20049;-70
2022/01/25 14:30:14;;;;;;;79.07;32.92;;;;;;;;;;5018815;28;20501;-70
2022/01/25 14:32:41;;;;;;;;;;;;;;;;;;5014931;28;20117;-70
2022/01/25 14:35:09;;;;;;;69.88;30.83;;;;;;;;;;5001664;28;20045;-70
2022/01/25 14:37:40;;;;;;;78.55;33.45;;;;;;;;;;5018124;28;20426;-70
2022/01/25 14:40:08;;;;;;;76.45;31.75;;;;;;;;;;5017214;28;20874;-70
2022/01/25 14:42:41;;;;;;;72.50;32.17;;;;;;;;;;5002919;28;20053;-70
2022/01/25 14:45:13;;;;;;;79.57;34.55;;;;;;;;;;5017993;28;20053;-70
2022/01/25 14:47:42;;;;;;;77.22;32.40;;;;;;;;;;5017281;28;20421;-70
2022/01/25 14:50:23;;;;;;;74.43;33.30;;;;;;;;;;5018613;28;20072;-69
2022/01/25 14:53:07;;;;;;;75.72;32.58;;;;;;;;;;5019130;28;20041;-69
2022/01/25 14:55:35;;;;;;;76.13;33.08;;;;;;;;;;5015872;28;20045;-70
2022/01/25 14:58:20;;;;;;;75.57;32.22;;;;;;;;;;5019355;28;20053;-70
2022/01/25 15:00:48;;;;;;;66.57;30.75;;;;;;;;;;5016799;28;20140;-70
2022/01/25 15:03:16;;;;;;;74.40;31.95;;;;;;;;;;5019600;28;20084;-70
2022/01/25 15:05:42;;;;;;;72.40;30.90;;;;;;;;;;5015011;28;20378;-70
2022/01/25 15:08:09;;;;;;;79.18;34.03;;;;;;;;;;5018253;28;20285;-70
2022/01/25 15:10:42;;;;;;;74.65;32.92;;;;;;;;;;5014088;28;20056;-70
2022/01/25 15:13:08;;;;;;;76.82;31.77;;;;;;;;;;5018965;28;20219;-70
2022/01/25 15:15:54;;;;;;;70.95;30.48;;;;;;;;;;5029597;28;20064;-70
2022/01/25 15:18:28;;;;;;;66.70;29.67;;;;;;;;;;5019209;28;20125;-70
2022/01/25 15:20:55;;;;;;;72.00;31.83;;;;;;;;;;5022235;28;20395;-70
2022/01/25 15:23:23;;;;;;;75.30;31.40;;;;;;;;;;5020505;28;20049;-70
2022/01/25 15:25:54;;;;;;;68.70;30.80;;;;;;;;;;5016532;28;20079;-70
2022/01/25 15:28:22;;;;;;;82.82;32.95;;;;;;;;;;5018669;28;20323;-70
2022/01/25 15:30:48;;;;;;;71.50;31.85;;;;;;;;;;5013895;28;20077;-70
2022/01/25 15:33:15;;;;;;;74.38;31.83;;;;;;;;;;5020837;28;20553;-70
2022/01/25 15:35:41;;;;;;;81.57;33.33;;;;;;;;;;5020725;28;20042;-70
2022/01/25 15:38:08;;;;;;;76.05;31.98;;;;;;;;;;5021162;28;20056;-71
2022/01/25 15:40:34;;;;;;;72.88;31.92;;;;;;;;;;5023094;28;20045;-70
2022/01/25 15:43:02;;;;;;;74.90;31.45;;;;;;;;;;5018133;28;20049;-69
2022/01/25 15:45:32;;;;;;;73.17;31.67;;;;;;;;;;5031539;28;20680;-70
2022/01/25 15:47:58;;;;;;;78.50;33.72;;;;;;;;;;5016347;28;20049;-69
2022/01/25 15:50:26;;;;;;;70.28;30.95;;;;;;;;;;5017490;28;20064;-70
2022/01/25 15:52:53;;;;;;;75.32;33.03;;;;;;;;;;5017182;28;20155;-69
2022/01/25 15:55:19;;;;;;;77.38;32.65;;;;;;;;;;5015882;28;20049;-69
2022/01/25 15:57:46;;;;;;;75.65;31.73;;;;;;;;;;5018558;28;20059;-69
2022/01/25 16:00:12;;;;;;;74.07;33.03;;;;;;;;;;5015953;28;20053;-69
2022/01/25 16:02:39;;;;;;;76.60;34.38;;;;;;;;;;5019630;28;20051;-70
2022/01/25 16:05:06;;;;;;;76.93;32.65;;;;;;;;;;5015021;28;20125;-70
2022/01/25 16:07:32;;;;;;;76.30;31.67;;;;;;;;;;5019917;28;20049;-70
2022/01/25 16:09:58;;;;;;;71.38;29.92;;;;;;;;;;5022426;28;20569;-70
2022/01/25 16:12:26;;;;;;;76.50;32.78;;;;;;;;;;5033132;28;20434;-70
2022/01/25 16:14:52;;;;;;;68.72;29.92;;;;;;;;;;5012523;28;20473;-70
2022/01/25 16:17:21;;;;;;;72.32;32.15;;;;;;;;;;5019815;28;20063;-70
2022/01/25 16:19:48;;;;;;;74.68;31.23;;;;;;;;;;4997865;28;20136;-71
2022/01/25 16:22:15;;;;;;;73.18;32.05;;;;;;;;;;5015733;28;20060;-70
2022/01/25 16:24:41;;;;;;;72.57;31.95;;;;;;;;;;5023627;28;20060;-71
2022/01/25 16:27:07;;;;;;;73.25;31.05;;;;;;;;;;5017752;28;20042;-71
2022/01/25 16:29:36;;;;;;;79.32;33.38;;;;;;;;;;5016269;28;20279;-70
2022/01/25 16:32:03;;;;;;;75.32;32.47;;;;;;;;;;5014705;28;20050;-70
2022/01/25 16:34:30;;;;;;;72.40;32.00;;;;;;;;;;5020630;28;20539;-71